Airfield :
LOGIN :

Register | Disclaimer

   EN    FR    IT 

 










Legend :    VFR   Marginal VFR   IFR   Intensive IFR   Very Intensive IFR
Visi :
Ceiling :
>= 8 km
>= 3000ft
5 to 8 km
1000 to 3000 ft
1500m to 5 km
500 to 1000 ft
800 to 1500m
200 to 500 ft
< 800m
< 200 ft
Symbols :   Thunderstorms  Fog  Heavy snow  Heavy precipitations  Wind > 20 kt
SIGMETs :     Misc.  Thunderstorms  Icing  Turbulence  Mountain Waves  Volcanic Ashes







- Airport Elevation : 1079 ft


ETIK - Illesheim Air Base

CURRENT METAR :
  • 241356Z AUTO 30008KT 9999 SCT055 BKN070 BKN140 BKN200 20/08 A3014 RMK AO2 SLP206 T01960077 $

EXPIRED METARs :
  • 241256Z AUTO 32003KT 9999 FEW110 SCT130 SCT170 BKN190 20/07 A3015 RMK AO2 SLP209 T01990073 $
  • 241156Z AUTO 31009KT 9999 SCT050 SCT080 BKN100 BKN120 BKN140 BKN190 19/07 A3017 RMK AO2 SLP216 T01920073 10198 20118 57008 $

TAF TAF ETIK
Valid from the 24 at 13:00 until the 25 at 19:00 UTC


241301Z 2413/2519 31009KT 9999 BKN040 OVC100 610907 QNH3013INS
BECMG 2422/2423 VRB06KT 9000 -SHRA OVC015 610904 QNH3016INS
BECMG 2505/2506 VRB06KT 9999 NSW BKN020 QNH3017INS TX22/2513Z TN06/2503Z
No reported NOTAMs for that airfield.



MET'MAP, your aeronautical weather chart ! - Copyright ORBIFLY December 2007 - Disclaimer

ORBIFLY MET'MAP TEAM :

Programming & Development : Alexandra Zaïnal
Concept & Development : Baudouin d'Aumeries
Co-Development & Prog : Marc-Olivier Méhu
Technical & hardware support : Manuel Goepfert

Contact : metmap@orbifly.com




SOURCES & CREDITS :

   NOAA